La Esperanza, Honduras
Current Conditions -  °F | °C
As of 8:58 PM on Friday 19 Dec 2014 (Local Time) from MHSC Reporting Station
Clear Clear  
Wind Chill: 68°   Ceiling: Unl
Heat Index: 68°   Visibility: 6mi
Dew Point: 64°   Wind: 3mph
Humidity: 85%   Direction: 150°SSE
Pressure: 30.01"   Gusts: NA
Location:  14.31°N, 88.18°W
Report Text: MHSC 200258Z AUTO 15003KT 9999 CLR 20/18 A3001 RMK AO2 SLP132 T02010176 52021 $
Loading
Personal Weather Stations






























Interactive Weather Map New forecast layout! Learn more

10-Day Weather Forecast

Advertisements
Track Severe Weather on mobile